^^

METAR Αεροδρομίων

σε ακτίνα 500 χλμ


 Τι είναι το METAR ??? 

Πρώτο είναι το πλησιέστερο αεροδρόμιο (Θεσ/νίκη LGTS 6χλμ) και
τέλος το πιο απομακρυσμένο (Κων/πολη LTBA 494χλμ).
Επίσης μερικές αναφορές, παρουσιάζουν λιγότερα στοιχεία γιατί
οι αρχικές είναι ελλιπείς ή έχουν λάθος μορφοποίηση.
Πηγαίνετε στις Αναφορές METAR από Μετεωρολογικούς Σταθμούς )  
Αλφαβητική Λίστα Γρήγορης Μετάβασης στα 48 Αεροδρόμια
Αλβανία: Τίρανα  Βουλγαρία: Γκόρνα Οριαχόβιτσα  Μπουργκάς  Σόφια  Φιλιππούπολη  Ελλάδα: Αθήνα  Αλεξανδρούπολη  Ανδραβίδα  Βόλος  Ελευσίνα  Ζάκυνθος  Θεσσαλονίκη  Ιωάννινα  Καβάλα  Καλαμάτα  Κέρκυρα  Κεφαλονιά  Κοζάνη  Κύθηρα
Λέσβος  Λήμνος  Μύκονος  Νάξος  Πάρος  Πάτρα  Πρέβεζα  Σάμος  Σκιάθος  Σκύρος  Σύρος  Χίος  Ιταλία: Γκαλατίνα  Μπρίντιζι  Σάντα Μαρία ντι Λέουκα  Ταράντο  Κόσοβο: Πρίστινα  Κροατία: Ντουμπρόβνικ  Μαυροβούνιο: Ποντγκόριτσα  Τιβάτ
Π.Γ.Δ.Μ: Οχρίδα  Σκόπια  Ρουμανία: Κραϊόβα  Σερβία: Κράλιεβο  Νις  Ούζιτσε  Τουρκία: Κωνσταντινούπολη  Σμύρνη Τσορλού 
(ΒΠΑ)Βάση Πολεμικής Αεροπορίας
LGTS - Αεροδρόμιο "Μακεδονία"
Θεσσαλονίκη - Κεντρική Μακεδονία - Ελλάδα
Γ.Πλάτ: 40.5167 - Γ.Μήκ: 22.9667 - Υψόμ: 7μ
Απόσταση από το Vouhead Weather: (Ν) 6χλμ
Ενημερώθηκε: 10/12/2018 21:20
Διάσπαρτα νέφη
Διάσπαρτα νέφη
 Άνεμος από ΒΒΔ
Άνεμος: ΒΒΔ 30 km/h, Ριπή: 52 km/h
Θερμοκρασία: 10°C
Ψυχρότητα Ανέμου: 7°C
Σημ. Δρόσου: 1°C
Υγρασία: 54%
Βαρόμετρο: 1009 hPa
Σύννεφα: Διάσπαρτα νέφη
Ορατότητα: 10 km
Ανάλυση νέφωσης: Διάσπαρτα νέφη 762 m
2018/12/10 19:20 LGTS 101920Z 34016G28KT 9999 FEW025 10/01 Q1009 NOSIG
LGKZ - Αεροδρόμιο "Φίλιππος"
Κοζάνη - Δυτική Μακεδονία - Ελλάδα
Γ.Πλάτ: 40.2833 - Γ.Μήκ: 21.8333 - Υψόμ: 628μ
Απόσταση από το Vouhead Weather: (ΔΝΔ) 102χλμ
Ενημερώθηκε: 10/12/2018 13:50
ΜΗ ΠΡΟΣΦΑΤΟ METAR
Μερικώς νεφελώδης
Μερικώς νεφελώδης
 Άνεμος από ΒΔ
Άνεμος: ΒΔ 43 km/h
Θερμοκρασία: 6°C
Ψυχρότητα Ανέμου: 1°C
Σημ. Δρόσου: 0°C
Υγρασία: 66%
Βαρόμετρο: 1007 hPa
Σύννεφα: Μερικώς νεφελώδης
Ορατότητα: 10 km
Ανάλυση νέφωσης: Μερικώς νεφελώδης 610 m
Μερικώς νεφελώδης 2134 m
2018/12/10 11:50 LGKZ 101150Z 31023KT 9999 SCT020 SCT070 06/00 Q1007
 
LGKV - Αεροδρόμιο "Μέγας Αλέξανδρος"
Καβάλα(Χρυσούπολη) - Α. Μακεδονία & Θράκη - Ελλάδα
Γ.Πλάτ: 40.9167 - Γ.Μήκ: 24.6167 - Υψόμ: 5μ
Απόσταση από το Vouhead Weather: (ΑΒΑ) 144χλμ
Ενημερώθηκε: 10/12/2018 20:50
Κυρίως νεφελώδης
Κυρίως νεφελώδης
 Άνεμος από Δ
Άνεμος: Δ 11 km/h
Θερμοκρασία: 7°C
Ψυχρότητα Ανέμου: 5°C
Σημ. Δρόσου: 4°C
Υγρασία: 81%
Βαρόμετρο: 1006 hPa
Σύννεφα: Κυρίως νεφελώδης
Ορατότητα: 10 km
Ανάλυση νέφωσης: Διάσπαρτα νέφη 610 m
Μερικώς νεφελώδης 1067 m
Κυρίως νεφελώδης 2438 m
2018/12/10 18:50 LGKV 101850Z 28006KT 9999 FEW020 SCT035 BKN080 07/04 Q1006
LGBL - Αεροδρόμιο στη Νέα Αγχίαλο
Βόλος(Αλμυρός) - Θεσσαλία - Ελλάδα
Γ.Πλάτ: 39.2167 - Γ.Μήκ: 22.8000 - Υψόμ: 26μ
Απόσταση από το Vouhead Weather: (Ν) 151χλμ
Ενημερώθηκε: 10/12/2018 20:50
Διάσπαρτα νέφη
Διάσπαρτα νέφη
 Άνεμος από ΔΒΔ
Άνεμος: ΔΒΔ 11 km/h
Θερμοκρασία: 9°C
Ψυχρότητα Ανέμου: 7°C
Σημ. Δρόσου: 1°C
Υγρασία: 58%
Βαρόμετρο: 1009 hPa
Σύννεφα: Διάσπαρτα νέφη
Ορατότητα: 10 km
Ανάλυση νέφωσης: Διάσπαρτα νέφη 914 m
2018/12/10 18:50 LGBL 101850Z 29006KT 9999 FEW030 09/01 Q1009
 
LGSK - Αεροδρόμ. "Αλέξανδρος Παπαδιαμάντης"
Σκιάθος - Θεσσαλία(Σποράδες) - Ελλάδα
Γ.Πλάτ: 39.1833 - Γ.Μήκ: 23.5000 - Υψόμ: 15μ
Απόσταση από το Vouhead Weather: (ΝΝΑ) 160χλμ
Ενημερώθηκε: 10/12/2018 13:50
ΜΗ ΠΡΟΣΦΑΤΟ METAR
Μερικώς νεφελώδης
Μερικώς νεφελώδης
 Άνεμος από ΒΔ
Άνεμος: ΒΔ 9 km/h
Θερμοκρασία: 14°C
Σημ. Δρόσου: 8°C
Υγρασία: 67%
Βαρόμετρο: 1003 hPa
Σύννεφα: Μερικώς νεφελώδης
Ορατότητα: 10 km
Ανάλυση νέφωσης: Διάσπαρτα νέφη 366 m
Μερικώς νεφελώδης 762 m
2018/12/10 11:50 LGSK 101150Z 31005KT 9999 FEW012 SCT025 14/08 Q1003
LWSK - Αεροδρόμιο "Αλεξάντερ Δε Γκρέιτ"
Σκόπια(Πέτροβακ) - Περιφέρεια Σκοπίων - Π.Γ.Δ.Μ.
(Ελληνικό Υπουργείο Εξωτερικών, σχετικά με την Π.Γ.Δ.Μ.)
Γ.Πλάτ: 41.9667 - Γ.Μήκ: 21.6333 - Υψόμ: 239μ
Απόσταση από το Vouhead Weather: (ΒΔ) 192χλμ
Ενημερώθηκε: 10/12/2018 21:30
Μερικώς νεφελώδης
Μερικώς νεφελώδης
 Άνεμος από ΒΒΔ
Άνεμος: ΒΒΔ 24 km/h, Ριπή: 50 km/h
Θερμοκρασία: 6°C
Ψυχρότητα Ανέμου: 2°C
Σημ. Δρόσου: -2°C
Υγρασία: 57%
Βαρόμετρο: 1013 hPa
Σύννεφα: Μερικώς νεφελώδης
Ορατότητα: 10 km
Ανάλυση νέφωσης: Μερικώς νεφελώδης 2438 m
2018/12/10 19:30 LWSK 101930Z 34013G27KT 9999 SCT080 06/M02 Q1013 NOSIG
 
LWOH - Αεροδρόμιο "Σεντ Πολ Δε Απόστλ"
Οχρίδα - Νοτιοδυτική Περιφέρεια - Π.Γ.Δ.Μ.
(Ελληνικό Υπουργείο Εξωτερικών, σχετικά με την Π.Γ.Δ.Μ.)
Γ.Πλάτ: 41.9667 - Γ.Μήκ: 21.6333 - Υψόμ: 239μ
Απόσταση από το Vouhead Weather: (ΔΒΔ) 193χλμ
Ενημερώθηκε: 10/12/2018 21:30
Διάσπαρτα νέφη
Διάσπαρτα νέφη
 Άνεμος από ΒΔ
Άνεμος: ΒΔ 4 km/h
Θερμοκρασία: 1°C
Σημ. Δρόσου: -3°C
Υγρασία: 75%
Βαρόμετρο: 1011 hPa
Σύννεφα: Διάσπαρτα νέφη
Ορατότητα: 10 km
Ανάλυση νέφωσης: Διάσπαρτα νέφη 1219 m
2018/12/10 19:30 LWOH 101930Z 32002KT 9999 FEW040 01/M03 Q1011
LGLM - Αεροδρόμιο "Ήφαιστος"
Λήμνος - Βόρειο Αιγαίο - Ελλάδα
Γ.Πλάτ: 39.9167 - Γ.Μήκ: 25.2333 - Υψόμ: 5μ
Απόσταση από το Vouhead Weather: (ΑΝΑ) 205χλμ
Ενημερώθηκε: 10/12/2018 21:20
Μερικώς νεφελώδης
Μερικώς νεφελώδης
 Άνεμος από Β
Άνεμος: Β 26 km/h, Ριπή: 46 km/h
Θερμοκρασία: 9°C
Ψυχρότητα Ανέμου: 6°C
Σημ. Δρόσου: 5°C
Υγρασία: 76%
Βαρόμετρο: 1006 hPa
Σύννεφα: Μερικώς νεφελώδης
Ορατότητα: 10 km
Ανάλυση νέφωσης: Διάσπαρτα νέφη 305 m
Μερικώς νεφελώδης 762 m
2018/12/10 19:20 LGLM 101920Z 35014G25KT 9999 FEW010 SCT025 09/05 Q1006
 
LGIO - Αεροδρόμιο "Βασιλεύς Πύρρος"
Ιωάννινα - Ήπειρος - Ελλάδα
Γ.Πλάτ: 39.7000 - Γ.Μήκ: 20.8167 - Υψόμ: 476μ
Απόσταση από το Vouhead Weather: (ΔΝΔ) 207χλμ
Ενημερώθηκε: 10/12/2018 21:20
Διάσπαρτα νέφη
Διάσπαρτα νέφη
 Άνεμος από Μεταβλητός
Άνεμος: Μεταβλητός 0 km/h
Θερμοκρασία: 3°C
Σημ. Δρόσου: 0°C
Υγρασία: 81%
Βαρόμετρο: 1009 hPa
Σύννεφα: Διάσπαρτα νέφη
Ορατότητα: 10 km
Ανάλυση νέφωσης: Διάσπαρτα νέφη 914 m
2018/12/10 19:20 LGIO 101920Z /////KT 9999 FEW030 03/M00 Q1009
LGSY - Αεροδρόμιο στη Σκύρο
Σκύρος - Θεσσαλία(Σποράδες) - Ελλάδα
Γ.Πλάτ: 38.9667 - Γ.Μήκ: 24.4833 - Υψόμ: 15μ
Απόσταση από το Vouhead Weather: (ΝΑ) 220χλμ
Ενημερώθηκε: 10/12/2018 19:50
ΜΗ ΠΡΟΣΦΑΤΟ METAR
Μερικώς νεφελώδης
Μερικώς νεφελώδης
 Άνεμος από ΔΒΔ
Άνεμος: ΔΒΔ 31 km/h, Ριπή: 50 km/h
Θερμοκρασία: 10°C
Ψυχρότητα Ανέμου: 7°C
Σημ. Δρόσου: 8°C
Υγρασία: 88%
Βαρόμετρο: 1006 hPa
Σύννεφα: Μερικώς νεφελώδης
Ορατότητα: 10 km
Ανάλυση νέφωσης: Διάσπαρτα νέφη 366 m
Μερικώς νεφελώδης 762 m
2018/12/10 17:50 LGSY 101750Z 30017G27KT 9999 FEW012 SCT025 10/08 Q1006 RMK FEW018 OVC080 BLU
 
LBPD - Αεροδρόμιο στη Φιλιππούπολη
Φιλιππούπολη(Κρούμοβο) - Πλόβντιβ - Βουλγαρία
Γ.Πλάτ: 42.1333 - Γ.Μήκ: 24.8000 - Υψόμ: 185μ
Απόσταση από το Vouhead Weather: (ΒΑ) 231χλμ
Ενημερώθηκε: 10/12/2018 21:30
Νεφοσκεπής
Νεφοσκεπής
 Άνεμος από Δ
Άνεμος: Δ 33 km/h
Θερμοκρασία: 8°C
Ψυχρότητα Ανέμου: 3°C
Σημ. Δρόσου: 1°C
Υγρασία: 62%
Βαρόμετρο: 1008 hPa
Σύννεφα: Νεφοσκεπής
Ορατότητα: 10 km
Ανάλυση νέφωσης: Κυρίως νεφελώδης 1646 m
Νεφοσκεπής 1890 m
2018/12/10 19:30 LBPD 101930Z AUTO 28018KT 9999 BKN054 OVC062 08/01 Q1008 NOSIG
LBSF - Αεροδρόμιο στη Σόφια
Σόφια(Βράτσντεμπνα) - Μητρ. περ. Σόφιας - Βουλγαρία
Γ.Πλάτ: 42.6500 - Γ.Μήκ: 23.3833 - Υψόμ: 595μ
Απόσταση από το Vouhead Weather: (Β) 234χλμ
Ενημερώθηκε: 10/12/2018 21:30
Μερικώς νεφελώδης
Μερικώς νεφελώδης
 Άνεμος από ΔΒΔ
Άνεμος: ΔΒΔ 15 km/h
Θερμοκρασία: 3°C
Ψυχρότητα Ανέμου: -1°C
Σημ. Δρόσου: -1°C
Υγρασία: 75%
Βαρόμετρο: 1010 hPa
Σύννεφα: Μερικώς νεφελώδης
Ορατότητα: 10 km
Ανάλυση νέφωσης: Μερικώς νεφελώδης 1433 m
Μερικώς νεφελώδης 1615 m
2018/12/10 19:30 LBSF 101930Z 29008KT 270V330 9999 SCT047 SCT053 03/M01 Q1010 R99/29//95 NOSIG
 
LGAL - Αεροδρόμιο "Δημόκριτος"
Αλεξανδρούπολη - Α. Μακεδονία & Θράκη - Ελλάδα
Γ.Πλάτ: 40.8500 - Γ.Μήκ: 25.9167 - Υψόμ: 3μ
Απόσταση από το Vouhead Weather: (Α) 250χλμ
Ενημερώθηκε: 10/12/2018 21:20
Ασθενής βροχή, Κυρίως νεφελώδης
Ασθενής βροχή, Κυρίως νεφελώδης
 Άνεμος από calm
Άνεμος: Απνοια
Θερμοκρασία: 7°C
Σημ. Δρόσου: 6°C
Υγρασία: 93%
Βαρόμετρο: 1006 hPa
Περίληψη: Ασθενής βροχή
Σύννεφα: Κυρίως νεφελώδης
Ορατότητα: 10 km
Ανάλυση νέφωσης: Διάσπαρτα νέφη 366 m
Κυρίως νεφελώδης 549 m
2018/12/10 19:20 LGAL 101920Z 00000KT 9999 -RA FEW012 BKN018 07/06 Q1006
BKPR - Αεροδρόμιο "Αντεμ Γιασάρι"
Πρίστινα - Πρίστινα - Κόσοβο
(Ελληνικό Υπουργείο Εξωτερικών, σχετικά με το Κόσοβο)
Γ.Πλάτ: 42.5833 - Γ.Μήκ: 21.0333 - Υψόμ: 576μ
Απόσταση από το Vouhead Weather: (ΒΔ) 276χλμ
Ενημερώθηκε: 10/12/2018 21:30
Ασθενής πτώση χιονόκοκκων, Κυρίως νεφελώδης
Ασθενής πτώση χιονόκοκκων, Κυρίως νεφελώδης
 Άνεμος από ΒΒΔ
Άνεμος: ΒΒΔ 24 km/h
Θερμοκρασία: 4°C
Ψυχρότητα Ανέμου: -1°C
Σημ. Δρόσου: -3°C
Υγρασία: 61%
Βαρόμετρο: 1013 hPa
Περίληψη: Ασθενής πτώση χιονόκοκκων
Σύννεφα: Κυρίως νεφελώδης
Ορατότητα: 10 km
Ανάλυση νέφωσης: Μερικώς νεφελώδης 914 m
Κυρίως νεφελώδης 2134 m
2018/12/10 19:30 BKPR 101930Z 33013KT 9999 -SG SCT030 BKN070 04/M03 Q1013 NOSIG RMK 17010095
 
LGKR - Αεροδρόμιο "Ιωάννης Καποδίστριας"
Κέρκυρα - Ιόνιοι Νήσοι - Ελλάδα
Γ.Πλάτ: 39.6000 - Γ.Μήκ: 19.9167 - Υψόμ: 2μ
Απόσταση από το Vouhead Weather: (ΔΝΔ) 281χλμ
Ενημερώθηκε: 10/12/2018 21:20
Μερικώς νεφελώδης
Μερικώς νεφελώδης
 Άνεμος από ΔΝΔ
Άνεμος: ΔΝΔ 6 km/h
Θερμοκρασία: 12°C
Σημ. Δρόσου: 5°C
Υγρασία: 63%
Βαρόμετρο: 1009 hPa
Σύννεφα: Μερικώς νεφελώδης
Ορατότητα: 10 km
Ανάλυση νέφωσης: Μερικώς νεφελώδης 549 m
2018/12/10 19:20 LGKR 101920Z 25003KT 9999 SCT018 12/05 Q1009 NOSIG
LATI - Αεροδρόμιο "Μάδερ Τερέζα"
Τίρανα(Ρίνα) - Τίρανα - Αλβανία
Γ.Πλάτ: 41.3167 - Γ.Μήκ: 19.7667 - Υψόμ: 90μ
Απόσταση από το Vouhead Weather: (ΔΒΔ) 282χλμ
Ενημερώθηκε: 10/12/2018 21:20
Αίθριος
Αίθριος
 Άνεμος από ΒΔ
Άνεμος: ΒΔ 7 km/h
Θερμοκρασία: 6°C
Ψυχρότητα Ανέμου: 4°C
Σημ. Δρόσου: 1°C
Υγρασία: 71%
Βαρόμετρο: 1011 hPa
Περίληψη: Αίθριος
Ορατότητα: Μεγαλύτερη από 10 km
2018/12/10 19:20 LATI 101920Z 31004KT CAVOK 06/01 Q1011 NOSIG
 
LGEL - Αεροδρόμιο στην Ελευσίνα(ΒΠΑ)
Ελευσίνα - Αττική - Ελλάδα
Γ.Πλάτ: 38.0667 - Γ.Μήκ: 23.5500 - Υψόμ: 31μ
Απόσταση από το Vouhead Weather: (Ν) 282χλμ
Ενημερώθηκε: 10/12/2018 21:20
Διάσπαρτα νέφη
Διάσπαρτα νέφη
 Άνεμος από ΒΔ
Άνεμος: ΒΔ 9 km/h
Θερμοκρασία: 10°C
Ψυχρότητα Ανέμου: 9°C
Σημ. Δρόσου: 2°C
Υγρασία: 58%
Βαρόμετρο: 1009 hPa
Σύννεφα: Διάσπαρτα νέφη
Ορατότητα: 10 km
Ανάλυση νέφωσης: Διάσπαρτα νέφη 762 m
2018/12/10 19:20 LGEL 101920Z 32005KT 9999 FEW025 10/02 Q1009
LGPZ - Αεροδρόμιο στη Πρέβεζα
Πρέβεζα(Ακτιον) - Ήπειρος - Ελλάδα
Γ.Πλάτ: 38.6167 - Γ.Μήκ: 20.7667 - Υψόμ: 4μ
Απόσταση από το Vouhead Weather: (ΝΔ) 288χλμ
Ενημερώθηκε: 10/12/2018 20:50
Διάσπαρτα νέφη
Διάσπαρτα νέφη
 Άνεμος από calm
Άνεμος: Απνοια
Θερμοκρασία: 9°C
Σημ. Δρόσου: 4°C
Υγρασία: 71%
Βαρόμετρο: 1010 hPa
Σύννεφα: Διάσπαρτα νέφη
Ορατότητα: 10 km
Ανάλυση νέφωσης: Διάσπαρτα νέφη 914 m
2018/12/10 18:50 LGPZ 101850Z 00000KT 9999 FEW030 09/04 Q1010
 
LGRX - Αεροδρόμιο στη Πάτρα(ΒΠΑ)
Πάτρα(Αραξος) - Δυτική Ελλάδα - Ελλάδα
Γ.Πλάτ: 38.1667 - Γ.Μήκ: 21.4167 - Υψόμ: 15μ
Απόσταση από το Vouhead Weather: (ΝΝΔ) 299χλμ
Ενημερώθηκε: 10/12/2018 20:50
Κυρίως νεφελώδης
Κυρίως νεφελώδης
 Άνεμος από calm
Άνεμος: Απνοια
Θερμοκρασία: 14°C
Σημ. Δρόσου: 6°C
Υγρασία: 59%
Βαρόμετρο: 1009 hPa
Σύννεφα: Κυρίως νεφελώδης
Ορατότητα: 10 km
Ανάλυση νέφωσης: Διάσπαρτα νέφη 610 m
Κυρίως νεφελώδης 2134 m
2018/12/10 18:50 LGRX 101850Z 00000KT 9999 FEW020TCU BKN070 14/06 Q1009
LGAV - Αεροδρόμιο "Ελευθέριος Βεμιζέλος"
Αθήνα(Σπάτα) - Αττική - Ελλάδα
Γ.Πλάτ: 37.9333 - Γ.Μήκ: 23.9500 - Υψόμ: 94μ
Απόσταση από το Vouhead Weather: (ΝΝΑ) 305χλμ
Ενημερώθηκε: 10/12/2018 21:20
Διάσπαρτα νέφη
Διάσπαρτα νέφη
 Άνεμος από ΑΒΑ
Άνεμος: ΑΒΑ 15 km/h
Θερμοκρασία: 10°C
Ψυχρότητα Ανέμου: 8°C
Σημ. Δρόσου: 2°C
Υγρασία: 58%
Βαρόμετρο: 1009 hPa
Σύννεφα: Διάσπαρτα νέφη
Ορατότητα: 10 km
Ανάλυση νέφωσης: Διάσπαρτα νέφη 914 m
2018/12/10 19:20 LGAV 101920Z 06008KT 020V230 9999 FEW030 10/02 Q1009 NOSIG
 
LYNI - Αεροδρόμιο "Κονσταντίν Δε Γκρέιτ"
Νις - Νότια και Ανατολική Σερβία - Σερβία
Γ.Πλάτ: 43.3167 - Γ.Μήκ: 21.8833 - Υψόμ: 202μ
Απόσταση από το Vouhead Weather: (ΒΒΔ) 319χλμ
Ενημερώθηκε: 10/12/2018 21:30
Κυρίως νεφελώδης
Κυρίως νεφελώδης
 Άνεμος από calm
Άνεμος: Απνοια
Θερμοκρασία: 4°C
Σημ. Δρόσου: 0°C
Υγρασία: 75%
Βαρόμετρο: 1014 hPa
Σύννεφα: Κυρίως νεφελώδης
Ορατότητα: 10 km
Ανάλυση νέφωσης: Μερικώς νεφελώδης 1067 m
Κυρίως νεφελώδης 1737 m
2018/12/10 19:30 LYNI 101930Z 00000KT 9999 SCT035 BKN057 04/00 Q1014 NOSIG
LGAD - Αεροδρόμιο στην Ανδραβίδα(ΒΠΑ)
Ανδραβίδα - Δυτική Ελλάδα - Ελλάδα
Γ.Πλάτ: 37.9167 - Γ.Μήκ: 21.2667 - Υψόμ: 12μ
Απόσταση από το Vouhead Weather: (ΝΝΔ) 329χλμ
Ενημερώθηκε: 10/12/2018 21:20
Κυρίως νεφελώδης
Κυρίως νεφελώδης
 Άνεμος από Δ
Άνεμος: Δ 22 km/h
Θερμοκρασία: 14°C
Σημ. Δρόσου: 5°C
Υγρασία: 55%
Βαρόμετρο: 1010 hPa
Σύννεφα: Κυρίως νεφελώδης
Ορατότητα: 10 km
Ανάλυση νέφωσης: Διάσπαρτα νέφη 549 m
Κυρίως νεφελώδης 762 m
Κυρίως νεφελώδης 2438 m
2018/12/10 19:20 LGAD 101920Z 28012KT 9999 FEW018TCU BKN025 BKN080 14/05 Q1010
 
LGKF - Αεροδρόμιο στην Κεφαλονιά
Κεφαλονιά - Ιόνιοι Νήσοι - Ελλάδα
Γ.Πλάτ: 38.1167 - Γ.Μήκ: 20.5000 - Υψόμ: 18μ
Απόσταση από το Vouhead Weather: (ΝΔ) 346χλμ
Ενημερώθηκε: 10/12/2018 19:50
ΜΗ ΠΡΟΣΦΑΤΟ METAR
Ασθενής βροχή, Νεφοσκεπής
Ασθενής βροχή, Νεφοσκεπής
 Άνεμος από ΒΔ
Άνεμος: ΒΔ 20 km/h
Θερμοκρασία: 13°C
Σημ. Δρόσου: 9°C
Υγρασία: 77%
Βαρόμετρο: 1010 hPa
Περίληψη: Ασθενής βροχή
Σύννεφα: Νεφοσκεπής
Ορατότητα: 9 km
Ανάλυση νέφωσης: Μερικώς νεφελώδης 427 m
Διάσπαρτα νέφη 457 m
Κυρίως νεφελώδης 549 m
Νεφοσκεπής 2134 m
2018/12/10 17:50 LGKF 101750Z 32011KT 9000 -RA SCT014 FEW015TCU BKN018 OVC070 13/09 Q1010
LGMT - Αεροδρόμιο "Οδυσσέας Ελύτης"
Λέσβος - Βόρειο Αιγαίο - Ελλάδα
Γ.Πλάτ: 39.0500 - Γ.Μήκ: 26.6000 - Υψόμ: 17μ
Απόσταση από το Vouhead Weather: (ΑΝΑ) 353χλμ
Ενημερώθηκε: 10/12/2018 21:20
Κυρίως νεφελώδης
Κυρίως νεφελώδης
 Άνεμος από ΒΔ
Άνεμος: ΒΔ 24 km/h, Ριπή: 43 km/h
Θερμοκρασία: 9°C
Ψυχρότητα Ανέμου: 6°C
Σημ. Δρόσου: 5°C
Υγρασία: 76%
Βαρόμετρο: 1004 hPa
Σύννεφα: Κυρίως νεφελώδης
Ορατότητα: 10 km
Ανάλυση νέφωσης: Κυρίως νεφελώδης 762 m
2018/12/10 19:20 LGMT 101920Z 31013G23KT 270V350 9999 BKN025 09/05 Q1004
 
LGZA - Αεροδρόμιο "Διονύσιος Σολωμός"
Ζάκυνθος - Ιόνιοι Νήσοι - Ελλάδα
Γ.Πλάτ: 37.7500 - Γ.Μήκ: 20.8667 - Υψόμ: 3μ
Απόσταση από το Vouhead Weather: (ΝΝΔ) 362χλμ
Ενημερώθηκε: 10/12/2018 20:20
ΜΗ ΠΡΟΣΦΑΤΟ METAR
Ασθενής βροχή, Κυρίως νεφελώδης
Ασθενής βροχή, Κυρίως νεφελώδης
 Άνεμος από calm
Άνεμος: Απνοια
Θερμοκρασία: 11°C
Σημ. Δρόσου: 9°C
Υγρασία: 88%
Βαρόμετρο: 1010 hPa
Περίληψη: Ασθενής βροχή
Σύννεφα: Κυρίως νεφελώδης
Ορατότητα: 8 km
Ανάλυση νέφωσης: Διάσπαρτα νέφη 457 m
Διάσπαρτα νέφη 549 m
Κυρίως νεφελώδης 610 m
Κυρίως νεφελώδης 2134 m
2018/12/10 18:20 LGZA 101820Z 00000KT 8000 -RA FEW015 FEW018TCU BKN020 BKN070 11/09 Q1010
LBGO - Αεροδρόμιο στη Γκόρνα Οριαχόβιτσα
Γκόρνα Οριαχόβιτσα - Βέλικο Τάρνοβο - Βουλγαρία
Γ.Πλάτ: 43.1500 - Γ.Μήκ: 25.7167 - Υψόμ: 86μ
Απόσταση από το Vouhead Weather: (ΒΑ) 366χλμ
Ενημερώθηκε: 10/12/2018 21:30
Κυρίως νεφελώδης
Κυρίως νεφελώδης
 Άνεμος από ΔΒΔ
Άνεμος: ΔΒΔ 20 km/h
Θερμοκρασία: 6°C
Ψυχρότητα Ανέμου: 2°C
Σημ. Δρόσου: 4°C
Υγρασία: 87%
Βαρόμετρο: 1008 hPa
Σύννεφα: Κυρίως νεφελώδης
Ορατότητα: 10 km
Ανάλυση νέφωσης: Μερικώς νεφελώδης 1707 m
Κυρίως νεφελώδης 2499 m
2018/12/10 19:30 LBGO 101930Z AUTO 29011KT 9999 SCT056 BKN082 06/04 Q1008
 
LGHI - Αεροδρόμιο "Όμηρος"
Χίος - Ιόνιοι Νήσοι - Ελλάδα
Γ.Πλάτ: 38.3167 - Γ.Μήκ: 26.1167 - Υψόμ: 4μ
Απόσταση από το Vouhead Weather: (ΝΑ) 368χλμ
Ενημερώθηκε: 10/12/2018 20:50
Μερικώς νεφελώδης
Μερικώς νεφελώδης
 Άνεμος από ΒΒΔ
Άνεμος: ΒΒΔ 9 km/h
Θερμοκρασία: 12°C
Σημ. Δρόσου: 8°C
Υγρασία: 77%
Βαρόμετρο: 1004 hPa
Σύννεφα: Μερικώς νεφελώδης
Ορατότητα: 10 km
Ανάλυση νέφωσης: Διάσπαρτα νέφη 549 m
Μερικώς νεφελώδης 762 m
2018/12/10 18:50 LGHI 101850Z 33005KT 9999 FEW018TCU SCT025 12/08 Q1004
LYPG - Αεροδρόμιο στη Ποντγκόριτσα
Ποντγκόριτσα - Γκολούμποβτσι - Μαυροβούνιο
Γ.Πλάτ: 42.3667 - Γ.Μήκ: 19.2500 - Υψόμ: 43μ
Απόσταση από το Vouhead Weather: (ΒΔ) 369χλμ
Ενημερώθηκε: 10/12/2018 21:30
Αίθριος
Αίθριος
 Άνεμος από ΒΒΑ
Άνεμος: ΒΒΑ 19 km/h
Θερμοκρασία: 9°C
Ψυχρότητα Ανέμου: 6°C
Σημ. Δρόσου: -5°C
Υγρασία: 37%
Βαρόμετρο: 1013 hPa
Περίληψη: Αίθριος
Ορατότητα: Μεγαλύτερη από 10 km
2018/12/10 19:30 LYPG 101930Z 02010KT CAVOK 09/M05 Q1013 NOSIG
 
LGSO - Αεροδρόμιο "Δημήτριος Βικέλας"
Σύρος - Νότιο Αιγαίο - Ελλάδα
Γ.Πλάτ: 37.4167 - Γ.Μήκ: 24.9500 - Υψόμ: 72μ
Απόσταση από το Vouhead Weather: (ΝΝΑ) 390χλμ
Ενημερώθηκε: 10/12/2018 21:20

 Άνεμος από ΔΒΔ
Άνεμος: ΔΒΔ 35 km/h
Θερμοκρασία: 13°C
Σημ. Δρόσου: 4°C
Υγρασία: 55%
Βαρόμετρο: 1008 hPa
2018/12/10 19:20 LGSO 101920Z AUTO 29019KT //// // ////// 13/04 Q1008 RE//
LGKL - Αεροδρόμιο στη Καλαμάτα(ΒΠΑ)
Καλαμάτα - Πελοπόννησος - Ελλάδα
Γ.Πλάτ: 37.0667 - Γ.Μήκ: 22.0167 - Υψόμ: 8μ
Απόσταση από το Vouhead Weather: (ΝΝΔ) 398χλμ
Ενημερώθηκε: 10/12/2018 21:20
Διάσπαρτα νέφη
Διάσπαρτα νέφη
 Άνεμος από calm
Άνεμος: Απνοια
Θερμοκρασία: 9°C
Σημ. Δρόσου: 6°C
Υγρασία: 82%
Βαρόμετρο: 1010 hPa
Σύννεφα: Διάσπαρτα νέφη
Ορατότητα: 10 km
Ανάλυση νέφωσης: Διάσπαρτα νέφη 762 m
2018/12/10 19:20 LGKL 101920Z 00000KT 9999 FEW025 09/06 Q1010
 
LIBY - Αεροδρόμιο στη Σάντα Μαρία ντι Λέουκα
Σάντα Μαρία ντι Λέουκα - Απουλία(Λέτσε) - Ιταλία
Γ.Πλάτ: 39.8167 - Γ.Μήκ: 18.3500 - Υψόμ: 112μ
Απόσταση από το Vouhead Weather: (Δ) 402χλμ
Ενημερώθηκε: 10/12/2018 20:55
Μερικώς νεφελώδης
Μερικώς νεφελώδης
 Άνεμος από ΒΒΑ
Άνεμος: ΒΒΑ 19 km/h
Θερμοκρασία: 12°C
Σημ. Δρόσου: 6°C
Υγρασία: 67%
Βαρόμετρο: 1009 hPa
Σύννεφα: Μερικώς νεφελώδης
Ορατότητα: 10 km
Ανάλυση νέφωσης: Μερικώς νεφελώδης 671 m
2018/12/10 18:55 LIBY 101855Z 02010KT 9999 SCT022 12/06 Q1009 RMK BKN BKN080 QUK / QUL / VIS MAR 12 KM VIS MIN 9999
LGMK - Αεροδρόμιο στη Μύκονο
Μύκονος - Νότιο Αιγαίο - Ελλάδα
Γ.Πλάτ: 37.4333 - Γ.Μήκ: 25.3500 - Υψόμ: 123μ
Απόσταση από το Vouhead Weather: (ΝΝΑ) 404χλμ
Ενημερώθηκε: 10/12/2018 19:50
ΜΗ ΠΡΟΣΦΑΤΟ METAR
Διάσπαρτα νέφη
Διάσπαρτα νέφη
 Άνεμος από ΒΒΔ
Άνεμος: ΒΒΔ 17 km/h
Θερμοκρασία: 12°C
Σημ. Δρόσου: 9°C
Υγρασία: 82%
Βαρόμετρο: 1006 hPa
Σύννεφα: Διάσπαρτα νέφη
Ορατότητα: 10 km
Ανάλυση νέφωσης: Διάσπαρτα νέφη 610 m
2018/12/10 17:50 LGMK 101750Z 33009KT 9999 FEW020 12/09 Q1006
 
LYTV - Αεροδρόμιο στο Τιβάτ
Τιβάτ - Τιβάτ - Μαυροβούνιο
Γ.Πλάτ: 42.3833 - Γ.Μήκ: 18.7167 - Υψόμ: 5μ
Απόσταση από το Vouhead Weather: (ΔΒΔ) 408χλμ
Ενημερώθηκε: 10/12/2018 21:30
Αίθριος
Αίθριος
 Άνεμος από Β
Άνεμος: Β 20 km/h, Ριπή: 44 km/h
Θερμοκρασία: 10°C
Ψυχρότητα Ανέμου: 7°C
Σημ. Δρόσου: -5°C
Υγρασία: 35%
Βαρόμετρο: 1012 hPa
Περίληψη: Αίθριος
Ορατότητα: Μεγαλύτερη από 10 km
2018/12/10 19:30 LYTV 101930Z 35011G24KT CAVOK 10/M05 Q1012
LIBN - Αεροδρόμιο στη Γκαλατίνα(ΒΠΑ)
Γκαλατίνα - Απουλία(Λέτσε) - Ιταλία
Γ.Πλάτ: 40.2167 - Γ.Μήκ: 18.1333 - Υψόμ: 61μ
Απόσταση από το Vouhead Weather: (Δ) 412χλμ
Ενημερώθηκε: 10/12/2018 20:55
Μερικώς νεφελώδης
Μερικώς νεφελώδης
 Άνεμος από Β
Άνεμος: Β 9 km/h
Θερμοκρασία: 11°C
Σημ. Δρόσου: 7°C
Υγρασία: 77%
Βαρόμετρο: 1010 hPa
Σύννεφα: Μερικώς νεφελώδης
Ορατότητα: 10 km
Ανάλυση νέφωσης: Μερικώς νεφελώδης 762 m
2018/12/10 18:55 LIBN 101855Z 36005KT 9999 SCT025 11/07 Q1010 RMK BKN BKN090 VIS MIN 9999 WIND THR14 36006KT WIND THR32 36006KT BLU
 
LYKV - Αεροδρόμιο στο Κράλιεβο & Λάντεβτσι
Κράλιεβο(Όμπρβα) - Σουμαντίγια και Δ. Σερβία - Σερβία
Γ.Πλάτ: 43.8167 - Γ.Μήκ: 20.5833 - Υψόμ: 209μ
Απόσταση από το Vouhead Weather: (ΒΒΔ) 412χλμ
Ενημερώθηκε: 10/12/2018 21:30
Κυρίως νεφελώδης
Κυρίως νεφελώδης
 Άνεμος από Μεταβλητός
Άνεμος: Μεταβλητός 4 km/h
Θερμοκρασία: 2°C
Σημ. Δρόσου: 2°C
Υγρασία: 100%
Βαρόμετρο: 1014 hPa
Σύννεφα: Κυρίως νεφελώδης
Ορατότητα: 10 km
Ανάλυση νέφωσης: Κυρίως νεφελώδης 1402 m
2018/12/10 19:30 LYKV 101930Z VRB02KT 9999 BKN046 02/02 Q1014 NOSIG
LTBU - Αεροδρόμιο στο Τσορλού(ΒΠΑ)
Τσορλού - Μαρμαράς(Τεκιρντάγ-Ραιδεστός) - Τουρκία
Γ.Πλάτ: 41.1167 - Γ.Μήκ: 27.9167 - Υψόμ: 173μ
Απόσταση από το Vouhead Weather: (Α) 420χλμ
Ενημερώθηκε: 10/12/2018 21:20
Ασθενής βροχή, Showers, Κυρίως νεφελώδης
Ασθενής βροχή, Showers, Κυρίως νεφελώδης
 Άνεμος από ΒΔ
Άνεμος: ΒΔ 30 km/h
Θερμοκρασία: 6°C
Ψυχρότητα Ανέμου: 2°C
Σημ. Δρόσου: 5°C
Υγρασία: 93%
Βαρόμετρο: 1002 hPa
Περίληψη: Ασθενής βροχή, Showers
Σύννεφα: Κυρίως νεφελώδης
Ορατότητα: 8 km
Ανάλυση νέφωσης: Διάσπαρτα νέφη 457 m
Μερικώς νεφελώδης 914 m
Κυρίως νεφελώδης 2134 m
2018/12/10 19:20 LTBU 101920Z 32016KT 8000 -SHRA FEW015 SCT030 BKN070 06/05 Q1002
 
LRCV - Αεροδρόμιο στη Κραϊόβα
Κραϊόβα - Δολζ - Ρουμανία
Γ.Πλάτ: 44.3167 - Γ.Μήκ: 23.8833 - Υψόμ: 191μ
Απόσταση από το Vouhead Weather: (Β) 424χλμ
Ενημερώθηκε: 10/12/2018 21:30
Διάσπαρτα νέφη
Διάσπαρτα νέφη
 Άνεμος από Δ
Άνεμος: Δ 19 km/h
Θερμοκρασία: 3°C
Ψυχρότητα Ανέμου: -2°C
Σημ. Δρόσου: -1°C
Υγρασία: 75%
Βαρόμετρο: 1008 hPa
Σύννεφα: Διάσπαρτα νέφη
Ορατότητα: 10 km
Ανάλυση νέφωσης: Διάσπαρτα νέφη 2286 m
2018/12/10 19:30 LRCV 101930Z AUTO 26010KT 9999 FEW075/// 03/M01 Q1008
LIBR - Αεροδρόμιο στο Μπρίντιζι
(Ανεπίσημο όνομα αεροδρομίου: Ντελ Σαλέντο)
Μπρίντιζι(Πάπολα-Καζάλε) - Απουλία(Μπρίντιζι) - Ιταλία
Γ.Πλάτ: 40.6500 - Γ.Μήκ: 17.9500 - Υψόμ: 10μ
Απόσταση από το Vouhead Weather: (Δ) 424χλμ
Ενημερώθηκε: 10/12/2018 21:20
Αίθριος
Αίθριος
 Άνεμος από ΒΔ
Άνεμος: ΒΔ 19 km/h
Θερμοκρασία: 13°C
Σημ. Δρόσου: 6°C
Υγρασία: 63%
Βαρόμετρο: 1011 hPa
Περίληψη: Αίθριος
Ορατότητα: Μεγαλύτερη από 10 km
2018/12/10 19:20 LIBR 101920Z 32010KT CAVOK 13/06 Q1011
 
LBBG - Αεροδρόμιο στo Μπουργκάς
Μπουργκάς(Σαράφοβο) - Μπουργκάς - Βουλγαρία
Γ.Πλάτ: 42.5000 - Γ.Μήκ: 27.4833 - Υψόμ: 28μ
Απόσταση από το Vouhead Weather: (ΑΒΑ) 432χλμ
Ενημερώθηκε: 10/12/2018 21:30
Διάσπαρτα νέφη
Διάσπαρτα νέφη
 Άνεμος από Δ
Άνεμος: Δ 11 km/h
Θερμοκρασία: 7°C
Ψυχρότητα Ανέμου: 5°C
Σημ. Δρόσου: 3°C
Υγρασία: 76%
Βαρόμετρο: 1006 hPa
Σύννεφα: Διάσπαρτα νέφη
Ορατότητα: 10 km
Ανάλυση νέφωσης: Διάσπαρτα νέφη 701 m
2018/12/10 19:30 LBBG 101930Z 26006KT 220V310 9999 FEW023 07/03 Q1006 NOSIG
LGPA - Αεροδρόμιο "Παντελαίειο"
Πάρος - Νότιο Αιγαίο - Ελλάδα
Γ.Πλάτ: 37.0000 - Γ.Μήκ: 25.0667 - Υψόμ: 36μ
Απόσταση από το Vouhead Weather: (ΝΝΑ) 436χλμ
Ενημερώθηκε: 10/12/2018 21:20

 Άνεμος από ΒΒΔ
Άνεμος: ΒΒΔ 37 km/h
Θερμοκρασία: 14°C
Σημ. Δρόσου: 6°C
Υγρασία: 59%
Βαρόμετρο: 1008 hPa
2018/12/10 19:20 LGPA 101920Z AUTO 33020KT //// // ////// 14/06 Q1008 RE//
 
LGNX - Αεροδρόμιο στη Νάξο
Νάξος - Νότιο Αιγαίο - Ελλάδα
Γ.Πλάτ: 37.0833 - Γ.Μήκ: 25.3667 - Υψόμ: 4μ
Απόσταση από το Vouhead Weather: (ΝΝΑ) 439χλμ
Ενημερώθηκε: 10/12/2018 11:50
ΜΗ ΠΡΟΣΦΑΤΟ METAR
Μερικώς νεφελώδης
Μερικώς νεφελώδης
 Άνεμος από ΝΝΔ
Άνεμος: ΝΝΔ 31 km/h, Ριπή: 50 km/h
Θερμοκρασία: 17°C
Σημ. Δρόσου: 12°C
Υγρασία: 73%
Βαρόμετρο: 1004 hPa
Σύννεφα: Μερικώς νεφελώδης
Ορατότητα: 10 km
Ανάλυση νέφωσης: Διάσπαρτα νέφη 549 m
Μερικώς νεφελώδης 762 m
2018/12/10 09:50 LGNX 100950Z 20017G27KT 9999 FEW018 SCT025 17/12 Q1004
LTBJ - Αεροδρόμιο "Αντνάν Μεντερές"
Σμύρνη - Αιγαίο(Σμύρνη) - Τουρκία
Γ.Πλάτ: 38.2667 - Γ.Μήκ: 27.1333 - Υψόμ: 120μ
Απόσταση από το Vouhead Weather: (ΝΑ) 439χλμ
Ενημερώθηκε: 10/12/2018 21:20
Κυρίως νεφελώδης
Κυρίως νεφελώδης
 Άνεμος από Δ
Άνεμος: Δ 15 km/h
Θερμοκρασία: 11°C
Σημ. Δρόσου: 6°C
Υγρασία: 72%
Βαρόμετρο: 1004 hPa
Σύννεφα: Κυρίως νεφελώδης
Ορατότητα: 10 km
Ανάλυση νέφωσης: Μερικώς νεφελώδης 914 m
Κυρίως νεφελώδης 3048 m
2018/12/10 19:20 LTBJ 101920Z 27008KT 230V290 9999 SCT030 BKN100 11/06 Q1004 BECMG 35012KT
 
LDDU - Αεροδρόμιο στο Ντουμπρόβνικ
Ντουμπρόβνικ - Ντουμπρόβνικ Νερέτβα - Κροατία
Γ.Πλάτ: 42.5667 - Γ.Μήκ: 18.2667 - Υψόμ: 165μ
Απόσταση από το Vouhead Weather: (ΔΒΔ) 450χλμ
Ενημερώθηκε: 10/12/2018 21:30
Αίθριος
Αίθριος
 Άνεμος από Β
Άνεμος: Β 24 km/h
Θερμοκρασία: 9°C
Ψυχρότητα Ανέμου: 6°C
Σημ. Δρόσου: -4°C
Υγρασία: 40%
Βαρόμετρο: 1013 hPa
Περίληψη: Αίθριος
Ορατότητα: Μεγαλύτερη από 10 km
2018/12/10 19:30 LDDU 101930Z 36013KT 320V060 CAVOK 09/M04 Q1013 NOSIG
LYUZ - Αεροδρόμιο στην Ούζιτσε & Πόνικβε
(Ανεπίσημο όνομα αεροδρομίου: Λέπα Γκλάβα)
Ούζιτσε - Σουμαντίγια και Δ. Σερβία - Σερβία
Γ.Πλάτ: 43.9000 - Γ.Μήκ: 19.7000 - Υψόμ: 904μ
Απόσταση από το Vouhead Weather: (ΒΔ) 458χλμ
Ενημερώθηκε: 10/12/2018 21:30
Κυρίως νεφελώδης
Κυρίως νεφελώδης
 Άνεμος από ΒΔ
Άνεμος: ΒΔ 9 km/h
Θερμοκρασία: 0°C
Ψυχρότητα Ανέμου: -3°C
Σημ. Δρόσου: -4°C
Υγρασία: 75%
Βαρόμετρο: 1013 hPa
Σύννεφα: Κυρίως νεφελώδης
Ορατότητα: 10 km
Ανάλυση νέφωσης: Κυρίως νεφελώδης 975 m
Κυρίως νεφελώδης 1280 m
2018/12/10 19:30 LYUZ 101930Z AUTO 32005KT 270V020 9999 BKN032/// BKN042/// M00/M04 Q1013
 
LGSM - Αεροδρόμιο "Αρίσταρχος ο Σάμιος"
Σάμος - Βόρειο Αιγαίο - Ελλάδα
Γ.Πλάτ: 37.6833 - Γ.Μήκ: 26.9167 - Υψόμ: 6μ
Απόσταση από το Vouhead Weather: (ΝΑ) 467χλμ
Ενημερώθηκε: 10/12/2018 19:50
ΜΗ ΠΡΟΣΦΑΤΟ METAR
Μερικώς νεφελώδης
Μερικώς νεφελώδης
 Άνεμος από ΔΒΔ
Άνεμος: ΔΒΔ 19 km/h
Θερμοκρασία: 12°C
Σημ. Δρόσου: 9°C
Υγρασία: 82%
Βαρόμετρο: 1003 hPa
Σύννεφα: Μερικώς νεφελώδης
Ορατότητα: 10 km
Ανάλυση νέφωσης: Διάσπαρτα νέφη 488 m
Μερικώς νεφελώδης 549 m
2018/12/10 17:50 LGSM 101750Z 30010KT 9999 FEW016TCU SCT018 12/09 Q1003
LIBG - Αεροδρόμιο "Μαρτσέλο Αρλόττα"
Μουντιάζι(Ταράντο-Γκροτάλιε)-Απουλία(Ταράντο)-Ιταλία
Γ.Πλάτ: 40.5167 - Γ.Μήκ: 17.3833 - Υψόμ: 69μ
Απόσταση από το Vouhead Weather: (Δ) 472χλμ
Ενημερώθηκε: 10/12/2018 20:50
Διάσπαρτα νέφη
Διάσπαρτα νέφη
 Άνεμος από ΒΒΑ
Άνεμος: ΒΒΑ 7 km/h
Θερμοκρασία: 9°C
Ψυχρότητα Ανέμου: 8°C
Σημ. Δρόσου: 4°C
Υγρασία: 71%
Βαρόμετρο: 1010 hPa
Σύννεφα: Διάσπαρτα νέφη
Ορατότητα: 10 km
Ανάλυση νέφωσης: Διάσπαρτα νέφη 1219 m
2018/12/10 18:50 LIBG 101850Z 03004KT 9999 FEW040 09/04 Q1010
 
LGKC - Αεροδρόμιο στα Κύθηρα
Κύθηρα(Επτάνησα) - Αττική(Νήσοι) - Ελλάδα
Γ.Πλάτ: 36.2833 - Γ.Μήκ: 23.0167 - Υψόμ: 319μ
Απόσταση από το Vouhead Weather: (Ν) 476χλμ
Ενημερώθηκε: 10/12/2018 19:50
ΜΗ ΠΡΟΣΦΑΤΟ METAR
Μερικώς νεφελώδης
Μερικώς νεφελώδης
 Άνεμος από Δ
Άνεμος: Δ 37 km/h
Θερμοκρασία: 12°C
Σημ. Δρόσου: 8°C
Υγρασία: 77%
Βαρόμετρο: 1009 hPa
Σύννεφα: Μερικώς νεφελώδης
Ορατότητα: 10 km
Ανάλυση νέφωσης: Διάσπαρτα νέφη 549 m
Μερικώς νεφελώδης 610 m
2018/12/10 17:50 LGKC 101750Z 26020KT 9999 FEW018TCU SCT020 12/08 Q1009
LTBA - Αεροδρόμιο "Ατατούρκ"
Κωνσταντινούπολη - Μαρμαράς(Κων/πολη) - Τουρκία
Γ.Πλάτ: 40.9667 - Γ.Μήκ: 28.8167 - Υψόμ: 37μ
Απόσταση από το Vouhead Weather: (Α) 494χλμ
Ενημερώθηκε: 10/12/2018 21:20
Rain showers, Κυρίως νεφελώδης
Rain showers, Κυρίως νεφελώδης
 Άνεμος από Β
Άνεμος: Β 35 km/h
Θερμοκρασία: 9°C
Ψυχρότητα Ανέμου: 5°C
Σημ. Δρόσου: 7°C
Υγρασία: 87%
Βαρόμετρο: 1001 hPa
Περίληψη: Rain Showers
Σύννεφα: Κυρίως νεφελώδης
Ορατότητα: 6 km
Ανάλυση νέφωσης: Μερικώς νεφελώδης 244 m
Κυρίως νεφελώδης 762 m
2018/12/10 19:20 LTBA 101920Z 36019KT 6000 2700SW SHRA SCT008 BKN025 09/07 Q1001 BECMG 9999 NSW
   Μην χρησιμοποιήσετε τα στοιχεία για αποφάσεις που αφορούν ζωές και πάσης φύσεως ιδιοκτησίες  
ΠΗΓΑΙΝΕΤΕ ΣΤΗΝ ΙΟΝΙΑ ΠΗΓΑΙΝΕΤΕ ΣΤΗΝ ΡΕΑ ΠΗΓΑΙΝΕΤΕ ΣΤΗΝ ΚΗΦΙΣΙΑ ΠΗΓΑΙΝΕΤΕ ΣΤΗΝ ΣΥΡΟ ΠΗΓΑΙΝΕΤΕ ΣΤΗΝ ΔΕΞΑΜΕΝΗ (BOLTEK) ΠΗΓΑΙΝΕΤΕ ΣΤΗΝ ΔΕΞΑΜΕΝΗ (LR) Γενική Γραμματεία Πολιτικής Προστασίας Ενιαίος Ευρωπαϊκός Αριθμός Έκτακτης Ανάγκης Βίντεο για το Καστελλόριζο(Μεγίστη) από τα αρχεία της ΕΡΤ Ιστοσελίδα Δήμου Μεγίστης Δείτε το μεγαλύτερο